Time;durP1;ratioP1;P1;durP2;ratioP2;P2;SDS_P1;SDS_P2;PMS_P1;PMS_P2;Temp;Humidity;BMP_temperature;BMP_pressure;BME280_temperature;BME280_humidity;BME280_pressure;Samples;Min_cycle;Max_cycle;Signal;HPM_P1;HPM_P2
2022/04/05 00:02:17;;;;;;;15.83;8.80;;;6.00;70.50;;;;;;5035285;28;20810;-76
2022/04/05 00:04:43;;;;;;;12.53;8.10;;;6.00;70.50;;;;;;5031772;28;20212;-77
2022/04/05 00:07:09;;;;;;;15.10;8.70;;;6.00;70.40;;;;;;5030510;28;20416;-76
2022/04/05 00:09:35;;;;;;;12.87;8.63;;;6.00;70.40;;;;;;5033667;28;20412;-78
2022/04/05 00:12:01;;;;;;;13.50;7.70;;;6.00;70.50;;;;;;5033271;28;20464;-77
2022/04/05 00:14:27;;;;;;;13.87;8.70;;;6.00;70.40;;;;;;5032591;28;20236;-78
2022/04/05 00:16:52;;;;;;;12.20;8.30;;;6.10;70.40;;;;;;5033686;28;20177;-78
2022/04/05 00:19:22;;;;;;;14.57;8.40;;;6.10;70.20;;;;;;5032609;28;20208;-79
2022/04/05 00:21:49;;;;;;;14.50;8.30;;;6.20;70.20;;;;;;5027629;28;20174;-78
2022/04/05 00:24:17;;;;;;;13.50;7.93;;;6.20;69.80;;;;;;5035659;28;20467;-78
2022/04/05 00:26:43;;;;;;;12.07;6.77;;;6.10;69.90;;;;;;5031611;28;20416;-79
2022/04/05 00:29:09;;;;;;;10.80;7.37;;;6.10;70.20;;;;;;5032333;28;20456;-77
2022/04/05 00:31:34;;;;;;;12.23;8.30;;;6.10;70.20;;;;;;5032164;28;20201;-78
2022/04/05 00:34:00;;;;;;;15.20;8.37;;;6.10;70.40;;;;;;5032155;28;20227;-78
2022/04/05 00:36:26;;;;;;;14.43;8.70;;;6.00;70.50;;;;;;5032660;28;20435;-79
2022/04/05 00:38:51;;;;;;;14.90;9.07;;;6.00;70.70;;;;;;5031435;28;20188;-76
2022/04/05 00:41:17;;;;;;;15.10;8.37;;;6.00;70.80;;;;;;5031369;28;20722;-78
2022/04/05 00:43:43;;;;;;;17.60;9.77;;;6.00;71.00;;;;;;5031794;28;20203;-79
2022/04/05 00:46:09;;;;;;;14.10;8.20;;;6.00;70.80;;;;;;5039658;28;20271;-78
2022/04/05 00:48:50;;;;;;;13.53;8.27;;;6.00;70.80;;;;;;5031557;28;20652;-78
2022/04/05 00:51:17;;;;;;;11.70;8.00;;;6.00;70.70;;;;;;5028655;28;20825;-77
2022/04/05 00:53:46;;;;;;;13.57;8.80;;;6.00;70.70;;;;;;5033246;28;20435;-76
2022/04/05 00:56:18;;;;;;;14.77;9.30;;;6.10;70.80;;;;;;5032679;28;20906;-76
2022/04/05 00:58:55;;;;;;;14.37;8.00;;;6.00;70.70;;;;;;5037658;28;20434;-76
2022/04/05 01:01:22;;;;;;;15.10;8.40;;;6.10;70.70;;;;;;5034129;28;20973;-77
2022/04/05 01:03:50;;;;;;;14.87;7.73;;;6.10;70.80;;;;;;5031198;28;20439;-75
2022/04/05 01:06:39;;;;;;;16.63;8.43;;;6.10;70.80;;;;;;5033317;28;20949;-76
2022/04/05 01:09:11;;;;;;;14.77;9.40;;;6.00;70.50;;;;;;5025632;28;20424;-76
2022/04/05 01:11:37;;;;;;;14.97;8.33;;;6.10;70.70;;;;;;5033185;28;20841;-77
2022/04/05 01:14:04;;;;;;;15.90;8.00;;;6.10;70.20;;;;;;5031952;28;20440;-76
2022/04/05 01:16:31;;;;;;;13.53;8.17;;;6.10;70.40;;;;;;5037380;28;20420;-76
2022/04/05 01:18:57;;;;;;;15.07;7.63;;;6.20;70.10;;;;;;5040859;28;20546;-77
2022/04/05 01:21:23;;;;;;;11.87;8.23;;;6.20;69.80;;;;;;5039169;28;20485;-77
2022/04/05 01:24:14;;;;;;;14.40;7.73;;;6.20;69.90;;;;;;5038081;28;20911;-79
2022/04/05 01:26:44;;;;;;;14.80;8.23;;;6.20;69.90;;;;;;5036360;28;20270;-77
2022/04/05 01:29:11;;;;;;;12.13;7.87;;;6.20;70.40;;;;;;5037378;28;20423;-78
2022/04/05 01:31:39;;;;;;;12.70;8.00;;;6.20;70.70;;;;;;5041487;28;20466;-77
2022/04/05 01:34:05;;;;;;;13.53;7.37;;;6.20;70.80;;;;;;5039169;28;20525;-76
2022/04/05 01:36:31;;;;;;;13.43;8.20;;;6.20;71.10;;;;;;5039475;28;20905;-75
2022/04/05 01:38:57;;;;;;;16.30;9.37;;;6.20;71.70;;;;;;5040298;28;20443;-76
2022/04/05 01:41:23;;;;;;;15.07;9.43;;;6.20;72.00;;;;;;5038410;28;20430;-76
2022/04/05 01:43:48;;;;;;;16.57;7.93;;;6.10;72.30;;;;;;5043405;28;20279;-77
2022/04/05 01:46:14;;;;;;;12.93;7.73;;;6.10;72.40;;;;;;5034896;28;20214;-78
2022/04/05 01:48:40;;;;;;;11.80;7.60;;;6.10;72.60;;;;;;5034423;28;20260;-75
2022/04/05 01:51:06;;;;;;;16.27;8.33;;;6.10;72.70;;;;;;5036665;28;20204;-75
2022/04/05 01:53:32;;;;;;;20.27;9.60;;;6.10;72.60;;;;;;5034015;28;20423;-76
2022/04/05 01:55:58;;;;;;;12.60;7.83;;;6.10;72.90;;;;;;5034257;28;20416;-76
2022/04/05 01:58:25;;;;;;;12.10;7.40;;;6.10;73.20;;;;;;5034395;28;20603;-77
2022/04/05 02:00:51;;;;;;;18.40;9.10;;;6.00;73.50;;;;;;5040949;28;20416;-77
2022/04/05 02:03:17;;;;;;;11.57;7.33;;;6.00;74.00;;;;;;5036353;28;20427;-76
2022/04/05 02:05:46;;;;;;;13.47;7.90;;;6.00;74.90;;;;;;5042992;28;20416;-76
2022/04/05 02:08:12;;;;;;;11.47;7.43;;;6.00;75.50;;;;;;5041839;28;20415;-77
2022/04/05 02:10:38;;;;;;;15.80;8.57;;;6.00;76.10;;;;;;5039916;28;20459;-78
2022/04/05 02:13:04;;;;;;;18.07;7.83;;;5.90;76.40;;;;;;5043651;28;20840;-76
2022/04/05 02:15:30;;;;;;;15.03;8.77;;;5.80;77.60;;;;;;5039379;28;20204;-77
2022/04/05 02:17:55;;;;;;;17.50;8.77;;;5.80;77.60;;;;;;5039815;28;20535;-76
2022/04/05 02:20:21;;;;;;;16.33;8.57;;;5.70;77.10;;;;;;5037803;28;20619;-77
2022/04/05 02:22:47;;;;;;;14.20;8.07;;;5.70;76.40;;;;;;5033521;28;20557;-77
2022/04/05 02:25:13;;;;;;;16.00;7.53;;;5.70;76.80;;;;;;5037849;28;20213;-77
2022/04/05 02:27:41;;;;;;;14.63;7.80;;;5.70;77.70;;;;;;5040722;28;20182;-77
2022/04/05 02:30:08;;;;;;;15.43;8.80;;;5.70;78.00;;;;;;5038948;28;20169;-78
2022/04/05 02:32:33;;;;;;;13.50;8.30;;;5.70;77.40;;;;;;5042886;28;20550;-77
2022/04/05 02:35:00;;;;;;;14.53;8.40;;;5.70;77.40;;;;;;5035003;28;20649;-77
2022/04/05 02:37:25;;;;;;;12.70;8.33;;;5.60;78.10;;;;;;5039455;28;20177;-78
2022/04/05 02:39:52;;;;;;;13.90;8.17;;;5.60;78.60;;;;;;5042960;28;20470;-78
2022/04/05 02:42:18;;;;;;;12.90;8.60;;;5.60;79.50;;;;;;5041804;28;20219;-77
2022/04/05 02:44:44;;;;;;;13.57;7.70;;;5.60;79.00;;;;;;5024438;28;20431;-77
2022/04/05 02:47:10;;;;;;;13.50;8.27;;;5.60;79.30;;;;;;5037067;28;20181;-78
2022/04/05 02:49:36;;;;;;;16.93;9.53;;;5.60;79.90;;;;;;5043847;28;20221;-77
2022/04/05 02:52:03;;;;;;;13.53;8.70;;;5.60;79.60;;;;;;5052846;28;20458;-77
2022/04/05 02:54:30;;;;;;;16.40;8.87;;;5.50;79.00;;;;;;5046111;28;20199;-77
2022/04/05 02:56:56;;;;;;;11.47;7.83;;;5.50;79.30;;;;;;5043357;28;20542;-76
2022/04/05 02:59:21;;;;;;;13.93;8.00;;;5.60;79.30;;;;;;5043782;28;20446;-78
2022/04/05 03:01:47;;;;;;;16.27;8.27;;;5.60;78.70;;;;;;5044075;28;20260;-75
2022/04/05 03:04:13;;;;;;;15.30;8.47;;;5.60;79.20;;;;;;5045108;28;20294;-77
2022/04/05 03:06:38;;;;;;;13.03;8.67;;;5.60;79.30;;;;;;5033350;28;20183;-76
2022/04/05 03:09:04;;;;;;;13.10;8.30;;;5.60;80.00;;;;;;5042426;28;20578;-77
2022/04/05 03:11:30;;;;;;;15.30;8.23;;;5.60;79.30;;;;;;5036589;28;20205;-78
2022/04/05 03:13:55;;;;;;;12.10;7.77;;;5.60;79.50;;;;;;5033719;28;20201;-77
2022/04/05 03:16:21;;;;;;;16.13;9.57;;;5.60;79.30;;;;;;5038070;28;20607;-78
2022/04/05 03:18:47;;;;;;;15.97;8.37;;;5.70;79.30;;;;;;5034048;28;20644;-77
2022/04/05 03:21:14;;;;;;;17.70;8.43;;;5.70;79.20;;;;;;5039012;28;20530;-79
2022/04/05 03:23:40;;;;;;;15.60;8.80;;;5.70;79.50;;;;;;5040133;28;20604;-79
2022/04/05 03:26:06;;;;;;;16.63;8.83;;;5.70;79.00;;;;;;5032908;28;20504;-80
2022/04/05 03:28:31;;;;;;;14.47;8.47;;;5.60;79.30;;;;;;5035987;28;20435;-79
2022/04/05 03:30:57;;;;;;;14.47;9.10;;;5.60;79.90;;;;;;5052131;28;20478;-78
2022/04/05 03:33:23;;;;;;;18.33;8.47;;;5.60;80.60;;;;;;5051455;28;20180;-79
2022/04/05 03:35:49;;;;;;;17.33;7.93;;;5.60;79.90;;;;;;5045936;28;20204;-79
2022/04/05 03:38:15;;;;;;;16.13;8.30;;;5.60;80.30;;;;;;5050665;28;20244;-77
2022/04/05 03:40:41;;;;;;;17.30;8.43;;;5.60;80.30;;;;;;5035578;28;20448;-78
2022/04/05 03:43:11;;;;;;;16.50;9.00;;;5.60;80.80;;;;;;5032149;28;20408;-79
2022/04/05 03:45:36;;;;;;;13.40;8.30;;;5.60;80.20;;;;;;5031958;28;20200;-78
2022/04/05 03:48:02;;;;;;;15.07;8.00;;;5.70;80.90;;;;;;5030413;28;20939;-78
2022/04/05 03:50:28;;;;;;;18.73;8.30;;;5.70;80.20;;;;;;5035486;28;20247;-78
2022/04/05 03:52:54;;;;;;;14.80;8.20;;;5.80;80.20;;;;;;5033631;28;20498;-79
2022/04/05 03:55:20;;;;;;;12.53;7.13;;;5.80;80.60;;;;;;5045215;28;20246;-78
2022/04/05 03:57:46;;;;;;;13.47;7.63;;;5.70;80.60;;;;;;5036140;28;20949;-77
2022/04/05 04:00:12;;;;;;;15.33;8.93;;;5.80;80.60;;;;;;5032656;28;20185;-79
2022/04/05 04:02:38;;;;;;;13.67;7.50;;;5.80;77.40;;;;;;5043154;28;20547;-77
2022/04/05 04:05:04;;;;;;;13.00;7.80;;;5.80;77.30;;;;;;5040940;28;20444;-77
2022/04/05 04:07:30;;;;;;;16.90;8.67;;;5.80;78.10;;;;;;5031986;28;20189;-76
2022/04/05 04:10:01;;;;;;;13.90;8.33;;;5.90;77.40;;;;;;5034470;28;20422;-78
2022/04/05 04:12:27;;;;;;;11.43;7.20;;;5.90;77.40;;;;;;5032514;28;20502;-79
2022/04/05 04:14:52;;;;;;;15.57;8.20;;;5.90;76.80;;;;;;5034696;28;20851;-77
2022/04/05 04:17:18;;;;;;;14.37;8.40;;;5.90;77.40;;;;;;5033078;28;20208;-77
2022/04/05 04:19:44;;;;;;;12.67;7.60;;;5.90;77.30;;;;;;5031375;28;20256;-79
2022/04/05 04:22:10;;;;;;;17.40;8.60;;;5.90;78.70;;;;;;5028880;28;20185;-77
2022/04/05 04:24:36;;;;;;;11.97;7.73;;;5.80;78.40;;;;;;5038774;28;20434;-78
2022/04/05 04:27:02;;;;;;;13.53;7.80;;;5.80;78.90;;;;;;5045303;28;20264;-79
2022/04/05 04:29:27;;;;;;;12.87;7.27;;;5.80;79.60;;;;;;5036027;28;20471;-79
2022/04/05 04:31:53;;;;;;;19.57;8.00;;;5.70;78.60;;;;;;5039106;28;20452;-78
2022/04/05 04:34:19;;;;;;;11.67;8.17;;;5.60;80.20;;;;;;5042991;28;20199;-77
2022/04/05 04:36:45;;;;;;;16.97;9.00;;;5.60;80.80;;;;;;5041476;28;20537;-78
2022/04/05 04:39:12;;;;;;;16.67;8.67;;;5.50;81.70;;;;;;5038644;28;20177;-76
2022/04/05 04:41:38;;;;;;;16.97;8.60;;;5.50;81.50;;;;;;5032122;28;20431;-78
2022/04/05 04:44:04;;;;;;;14.63;8.60;;;5.40;82.80;;;;;;5038998;28;20809;-79
2022/04/05 04:46:30;;;;;;;14.53;8.60;;;5.40;83.70;;;;;;5032000;28;20177;-77
2022/04/05 04:48:55;;;;;;;18.50;9.03;;;5.40;83.40;;;;;;5031452;28;20428;-78
2022/04/05 04:51:21;;;;;;;15.10;8.70;;;5.30;84.10;;;;;;5037841;28;20223;-80
2022/04/05 04:53:47;;;;;;;16.10;8.90;;;5.30;84.90;;;;;;5038460;28;20196;-77
2022/04/05 04:56:12;;;;;;;15.40;8.53;;;5.30;85.70;;;;;;5038683;28;20195;-77
2022/04/05 04:58:39;;;;;;;15.50;9.30;;;5.20;85.50;;;;;;5049921;28;20177;-76
2022/04/05 05:01:04;;;;;;;14.20;8.70;;;5.20;85.20;;;;;;5050512;28;20182;-75
2022/04/05 05:03:30;;;;;;;14.77;9.60;;;5.30;85.90;;;;;;5055877;28;20416;-75
2022/04/05 05:05:56;;;;;;;23.47;10.57;;;5.20;86.20;;;;;;5055125;28;20427;-76
2022/04/05 05:08:22;;;;;;;18.30;9.97;;;5.20;86.30;;;;;;5055204;28;20257;-75
2022/04/05 05:10:48;;;;;;;16.97;9.83;;;5.20;87.00;;;;;;5048294;28;20553;-77
2022/04/05 05:13:13;;;;;;;23.43;9.43;;;5.20;87.60;;;;;;5043939;28;20279;-77
2022/04/05 05:15:39;;;;;;;15.83;8.30;;;5.20;87.60;;;;;;5042462;28;20204;-77
2022/04/05 05:18:05;;;;;;;13.43;8.70;;;5.20;86.60;;;;;;5047639;28;20285;-78
2022/04/05 05:20:31;;;;;;;14.13;8.40;;;5.20;87.00;;;;;;5043389;28;20182;-78
2022/04/05 05:22:58;;;;;;;20.53;8.90;;;5.10;87.00;;;;;;5039062;28;20442;-77
2022/04/05 05:25:23;;;;;;;15.80;9.07;;;5.10;87.60;;;;;;5046160;28;20208;-76
2022/04/05 05:27:49;;;;;;;15.30;9.50;;;5.10;87.70;;;;;;5036935;28;20412;-79
2022/04/05 05:30:15;;;;;;;15.50;8.60;;;5.10;87.80;;;;;;5037467;28;20196;-76
2022/04/05 05:32:46;;;;;;;15.77;8.40;;;5.20;88.30;;;;;;5036928;28;20209;-76
2022/04/05 05:35:14;;;;;;;16.37;9.40;;;5.10;88.00;;;;;;5041663;28;20236;-76
2022/04/05 05:37:40;;;;;;;16.53;9.20;;;5.10;88.00;;;;;;5055110;28;20416;-78
2022/04/05 05:40:06;;;;;;;15.20;9.27;;;5.10;87.80;;;;;;5052531;28;20431;-78
2022/04/05 05:42:32;;;;;;;18.57;8.70;;;5.10;88.60;;;;;;5054189;28;20188;-77
2022/04/05 05:44:58;;;;;;;19.57;9.77;;;5.10;87.70;;;;;;5049121;28;20447;-77
2022/04/05 05:47:24;;;;;;;19.40;8.90;;;5.20;88.10;;;;;;5054603;28;20417;-77
2022/04/05 05:49:49;;;;;;;20.07;9.43;;;5.20;87.70;;;;;;5047560;28;20203;-77
2022/04/05 05:52:15;;;;;;;16.40;8.60;;;5.20;87.70;;;;;;5049679;28;20227;-78
2022/04/05 05:54:41;;;;;;;19.70;8.80;;;5.20;88.00;;;;;;5051113;28;20261;-78
2022/04/05 05:57:07;;;;;;;14.03;8.80;;;5.20;87.70;;;;;;5050684;28;20199;-76
2022/04/05 05:59:33;;;;;;;15.70;8.80;;;5.20;88.00;;;;;;5048680;28;20272;-78
2022/04/05 06:01:59;;;;;;;13.67;8.50;;;5.20;88.30;;;;;;5047343;28;20444;-77
2022/04/05 06:04:24;;;;;;;17.70;9.50;;;5.10;88.40;;;;;;5047979;28;20201;-78
2022/04/05 06:06:50;;;;;;;15.27;8.77;;;5.10;89.00;;;;;;5046811;28;20248;-77
2022/04/05 06:09:16;;;;;;;16.90;9.07;;;5.10;89.90;;;;;;5056775;28;20325;-77
2022/04/05 06:11:42;;;;;;;15.33;8.93;;;5.10;90.00;;;;;;5053094;28;20208;-78
2022/04/05 06:14:07;;;;;;;16.57;9.10;;;5.00;89.90;;;;;;5053432;28;20232;-78
2022/04/05 06:16:33;;;;;;;15.90;9.70;;;5.00;90.00;;;;;;5047101;28;20628;-76
2022/04/05 06:18:59;;;;;;;18.40;9.87;;;5.00;90.30;;;;;;5041414;28;20223;-77
2022/04/05 06:21:24;;;;;;;19.00;10.63;;;5.00;90.00;;;;;;5034364;28;20242;-77
2022/04/05 06:23:52;;;;;;;16.13;8.70;;;5.00;90.00;;;;;;5037375;28;20629;-77
2022/04/05 06:26:18;;;;;;;15.83;8.93;;;5.00;90.20;;;;;;5040004;28;20990;-79
2022/04/05 06:28:44;;;;;;;16.07;8.90;;;5.00;89.60;;;;;;5033995;28;20420;-77
2022/04/05 06:31:10;;;;;;;16.50;8.87;;;5.00;90.20;;;;;;5043962;28;20470;-76
2022/04/05 06:33:35;;;;;;;20.87;10.10;;;5.00;90.50;;;;;;5032972;28;20415;-76
2022/04/05 06:36:01;;;;;;;17.13;9.23;;;5.00;90.60;;;;;;5036815;28;20183;-77
2022/04/05 06:38:28;;;;;;;20.07;9.70;;;5.00;90.70;;;;;;5032150;28;20181;-77
2022/04/05 06:40:55;;;;;;;22.10;9.60;;;5.00;90.60;;;;;;5033212;28;20182;-75
2022/04/05 06:43:23;;;;;;;17.80;9.67;;;5.00;90.50;;;;;;5032818;28;20428;-76
2022/04/05 06:45:50;;;;;;;16.97;9.70;;;5.10;90.40;;;;;;5036632;28;20522;-77
2022/04/05 06:48:15;;;;;;;14.97;8.57;;;5.10;90.50;;;;;;5035674;28;20509;-77
2022/04/05 06:50:41;;;;;;;15.70;8.00;;;5.20;89.90;;;;;;5050010;28;20606;-77
2022/04/05 06:53:09;;;;;;;14.57;8.37;;;5.20;89.60;;;;;;5050940;28;20220;-80
2022/04/05 06:55:35;;;;;;;16.37;8.67;;;5.20;89.50;;;;;;5043142;28;20440;-75
2022/04/05 06:58:01;;;;;;;14.77;8.63;;;5.20;89.90;;;;;;5043071;28;20431;-76
2022/04/05 07:00:27;;;;;;;16.20;8.17;;;5.30;89.00;;;;;;5039851;28;20775;-76
2022/04/05 07:02:54;;;;;;;15.57;8.87;;;5.30;88.90;;;;;;5036649;28;20463;-77
2022/04/05 07:05:21;;;;;;;15.53;9.30;;;5.30;89.60;;;;;;5041724;28;20455;-75
2022/04/05 07:07:47;;;;;;;15.57;8.70;;;5.40;89.30;;;;;;5037619;28;20448;-76
2022/04/05 07:10:16;;;;;;;13.67;7.90;;;5.40;89.50;;;;;;5036173;28;20913;-76
2022/04/05 07:12:42;;;;;;;16.07;7.90;;;5.50;89.30;;;;;;5031764;28;20243;-75
2022/04/05 07:15:10;;;;;;;14.70;8.30;;;5.50;88.60;;;;;;5040041;28;20453;-74
2022/04/05 07:17:39;;;;;;;10.30;7.33;;;5.60;88.00;;;;;;5043110;28;20411;-78
2022/04/05 07:20:08;;;;;;;13.30;7.53;;;5.60;87.80;;;;;;5044420;28;20448;-78
2022/04/05 07:22:35;;;;;;;18.50;8.53;;;5.70;87.70;;;;;;5028472;28;20419;-75
2022/04/05 07:25:01;;;;;;;16.80;8.20;;;5.80;87.10;;;;;;5040789;28;20439;-75
2022/04/05 07:27:27;;;;;;;15.13;7.33;;;5.80;86.90;;;;;;5037045;28;20432;-76
2022/04/05 07:29:52;;;;;;;11.63;7.70;;;5.90;86.80;;;;;;5028408;28;20469;-77
2022/04/05 07:32:18;;;;;;;16.27;8.30;;;5.90;86.50;;;;;;5043806;28;20231;-77
2022/04/05 07:34:44;;;;;;;13.77;7.33;;;6.00;86.50;;;;;;5039461;28;20196;-75
2022/04/05 07:37:11;;;;;;;16.63;7.80;;;6.10;85.50;;;;;;5027100;28;20193;-75
2022/04/05 07:39:38;;;;;;;11.23;7.17;;;6.10;85.50;;;;;;5033493;28;20225;-79
2022/04/05 07:42:04;;;;;;;15.20;8.77;;;6.10;86.00;;;;;;5036233;28;20450;-78
2022/04/05 07:44:30;;;;;;;11.33;7.30;;;6.20;85.70;;;;;;5041688;28;20454;-77
2022/04/05 07:46:55;;;;;;;13.03;7.93;;;6.20;85.50;;;;;;5031972;28;20907;-78
2022/04/05 07:49:21;;;;;;;18.13;8.63;;;6.20;85.50;;;;;;5031620;28;20254;-76
2022/04/05 07:51:47;;;;;;;12.90;7.20;;;6.10;85.30;;;;;;5038245;28;20259;-75
2022/04/05 07:54:13;;;;;;;16.13;7.60;;;6.20;84.00;;;;;;5032397;28;20216;-76
2022/04/05 07:56:38;;;;;;;14.80;8.00;;;6.20;84.40;;;;;;5039263;28;20185;-77
2022/04/05 07:59:05;;;;;;;14.57;7.50;;;6.30;84.70;;;;;;5037546;28;20215;-78
2022/04/05 08:01:30;;;;;;;15.30;7.90;;;6.30;85.50;;;;;;5032909;28;20189;-77
2022/04/05 08:03:56;;;;;;;12.13;6.90;;;6.30;85.60;;;;;;5040886;28;20508;-76
2022/04/05 08:06:24;;;;;;;13.07;7.60;;;6.30;85.50;;;;;;5033345;28;20218;-77
2022/04/05 08:08:50;;;;;;;12.87;7.10;;;6.40;85.70;;;;;;5031973;28;20188;-76
2022/04/05 08:11:16;;;;;;;16.43;8.23;;;6.60;86.00;;;;;;5033717;28;20830;-77
2022/04/05 08:13:42;;;;;;;10.17;7.00;;;6.70;84.40;;;;;;5032800;28;20456;-76
2022/04/05 08:16:07;;;;;;;13.80;6.93;;;6.80;84.90;;;;;;5031070;28;20508;-76
2022/04/05 08:18:33;;;;;;;13.47;7.47;;;6.80;83.70;;;;;;5041563;28;20192;-76
2022/04/05 08:20:59;;;;;;;17.13;7.30;;;6.90;84.30;;;;;;5036747;28;20188;-77
2022/04/05 08:23:25;;;;;;;13.20;7.60;;;6.90;84.30;;;;;;5035035;28;20640;-77
2022/04/05 08:25:50;;;;;;;11.70;7.03;;;6.80;84.30;;;;;;5035094;28;20193;-76
2022/04/05 08:28:16;;;;;;;18.23;8.07;;;6.80;85.70;;;;;;5041400;28;20289;-77
2022/04/05 08:30:42;;;;;;;10.50;7.47;;;6.80;85.90;;;;;;5036314;28;20189;-78
2022/04/05 08:33:08;;;;;;;13.37;7.30;;;6.80;86.00;;;;;;5039167;28;20264;-78
2022/04/05 08:35:34;;;;;;;16.10;7.33;;;6.90;86.20;;;;;;5038036;28;20201;-76
2022/04/05 08:37:59;;;;;;;11.37;6.80;;;6.90;85.50;;;;;;5038215;28;20239;-76
2022/04/05 08:40:26;;;;;;;12.17;7.17;;;7.00;85.90;;;;;;5039054;28;20411;-77
2022/04/05 08:42:56;;;;;;;15.23;6.73;;;7.00;85.30;;;;;;5039897;28;20484;-78
2022/04/05 08:45:23;;;;;;;10.40;6.90;;;7.10;85.60;;;;;;5037275;28;20466;-76
2022/04/05 08:47:52;;;;;;;12.00;6.77;;;7.10;85.60;;;;;;5035189;28;20572;-77
2022/04/05 08:50:23;;;;;;;12.83;7.17;;;7.10;85.00;;;;;;5038453;28;20945;-78
2022/04/05 08:52:50;;;;;;;14.43;6.87;;;7.10;85.60;;;;;;5031898;28;20491;-77
2022/04/05 08:55:17;;;;;;;12.97;7.10;;;7.20;86.20;;;;;;5048773;28;20449;-76
2022/04/05 08:57:44;;;;;;;14.80;6.50;;;7.20;86.20;;;;;;5042230;28;20421;-78
2022/04/05 09:00:12;;;;;;;13.33;6.90;;;7.30;85.70;;;;;;5042359;28;20415;-77
2022/04/05 09:02:38;;;;;;;9.30;6.57;;;7.50;85.50;;;;;;5038067;28;21042;-78
2022/04/05 09:05:06;;;;;;;11.43;6.30;;;7.70;85.60;;;;;;5042916;28;20543;-77
2022/04/05 09:07:33;;;;;;;12.37;6.40;;;7.70;84.90;;;;;;5027985;28;20897;-76
2022/04/05 09:10:28;;;;;;;12.60;6.80;;;7.80;84.30;;;;;;5043044;28;20427;-78
2022/04/05 09:12:54;;;;;;;10.70;6.37;;;8.00;84.30;;;;;;5014146;28;20559;-79
2022/04/05 09:15:20;;;;;;;13.27;6.13;;;8.10;83.70;;;;;;5017441;28;20849;-77
2022/04/05 09:17:47;;;;;;;11.40;6.57;;;8.10;82.80;;;;;;5016192;28;20436;-79
2022/04/05 09:20:14;;;;;;;10.93;6.10;;;8.20;83.60;;;;;;5014919;28;20205;-78
2022/04/05 09:22:40;;;;;;;10.77;5.97;;;8.20;83.40;;;;;;5013925;28;20433;-78
2022/04/05 09:25:08;;;;;;;9.93;5.60;;;8.30;82.50;;;;;;5019532;28;20456;-78
2022/04/05 09:27:57;;;;;;;11.07;5.93;;;8.20;82.70;;;;;;5013058;28;20427;-77
2022/04/05 09:30:29;;;;;;;12.00;5.83;;;8.30;82.80;;;;;;5020288;28;20424;-78
2022/04/05 09:32:56;;;;;;;10.00;6.17;;;8.40;83.00;;;;;;5014911;28;20531;-78
2022/04/05 09:35:43;;;;;;;9.03;5.67;;;8.40;81.90;;;;;;5012963;28;20457;-77
2022/04/05 09:38:10;;;;;;;9.70;6.13;;;8.40;83.00;;;;;;4992923;28;20479;-78
2022/04/05 09:40:36;;;;;;;11.07;5.90;;;8.50;83.10;;;;;;5014953;28;20425;-79
2022/04/05 09:43:04;;;;;;;9.87;6.10;;;8.50;82.80;;;;;;5003479;28;20478;-77
2022/04/05 09:45:49;;;;;;;10.67;6.07;;;8.50;82.80;;;;;;5015782;28;20424;-77
2022/04/05 09:48:16;;;;;;;12.90;6.03;;;8.60;83.40;;;;;;5012983;28;20443;-77
2022/04/05 09:51:10;;;;;;;12.83;6.10;;;8.50;83.30;;;;;;5034585;28;20440;-78
2022/04/05 09:53:39;;;;;;;10.33;5.77;;;8.40;83.70;;;;;;5028814;28;20450;-76
2022/04/05 09:56:07;;;;;;;8.63;5.07;;;8.40;85.20;;;;;;5029723;28;20416;-77
2022/04/05 09:58:34;;;;;;;9.97;6.03;;;8.40;84.90;;;;;;5036748;28;20416;-78
2022/04/05 10:01:08;;;;;;;10.13;6.20;;;8.40;84.00;;;;;;5034740;28;20508;-78
2022/04/05 10:03:56;;;;;;;8.10;6.03;;;8.30;85.60;;;;;;5037771;28;20426;-77
2022/04/05 10:06:22;;;;;;;11.10;6.20;;;8.20;86.00;;;;;;5032737;28;20408;-77
2022/04/05 10:08:48;;;;;;;10.47;5.70;;;8.10;86.20;;;;;;5034441;28;20442;-78
2022/04/05 10:11:14;;;;;;;10.83;6.30;;;8.10;87.60;;;;;;5037533;28;20460;-77
2022/04/05 10:13:41;;;;;;;11.80;6.70;;;8.00;88.10;;;;;;5037283;28;20446;-77
2022/04/05 10:16:11;;;;;;;16.10;5.83;;;8.00;87.10;;;;;;5043448;28;20412;-78
2022/04/05 10:18:37;;;;;;;12.90;6.93;;;8.00;87.10;;;;;;5051459;28;20433;-76
2022/04/05 10:21:04;;;;;;;12.37;6.27;;;7.90;88.40;;;;;;5042897;28;20770;-77
2022/04/05 10:23:31;;;;;;;12.63;6.60;;;7.90;87.40;;;;;;5042310;28;20415;-77
2022/04/05 10:25:58;;;;;;;12.67;7.27;;;7.90;88.90;;;;;;5040823;28;20749;-77
2022/04/05 10:28:28;;;;;;;10.13;6.27;;;7.90;89.60;;;;;;5034696;28;20823;-77
2022/04/05 10:31:14;;;;;;;12.10;6.07;;;7.90;89.60;;;;;;5034705;28;20419;-77
2022/04/05 10:33:59;;;;;;;11.07;6.77;;;7.90;89.60;;;;;;5034047;28;20440;-77
2022/04/05 10:36:25;;;;;;;15.67;6.27;;;8.00;89.50;;;;;;5031933;28;20431;-76
2022/04/05 10:39:12;;;;;;;15.40;6.50;;;7.90;89.50;;;;;;5039566;28;20427;-77
2022/04/05 10:41:38;;;;;;;12.03;6.33;;;7.90;89.70;;;;;;5026163;28;20840;-77
2022/04/05 10:44:16;;;;;;;11.60;6.17;;;7.90;90.30;;;;;;5034611;28;20502;-76
2022/04/05 10:46:50;;;;;;;9.60;6.00;;;8.00;90.50;;;;;;5035337;28;20184;-76
2022/04/05 10:49:45;;;;;;;8.77;5.60;;;8.00;90.50;;;;;;5037683;28;20511;-77
2022/04/05 10:52:28;;;;;;;11.83;6.50;;;8.10;90.60;;;;;;5052102;28;20452;-77
2022/04/05 10:55:04;;;;;;;10.10;5.90;;;8.10;90.30;;;;;;5050222;28;21064;-76
2022/04/05 10:57:37;;;;;;;10.00;6.00;;;8.20;90.00;;;;;;5035267;28;20929;-76
2022/04/05 11:00:08;;;;;;;8.80;5.57;;;8.30;89.20;;;;;;5033059;28;20503;-76
2022/04/05 11:02:45;;;;;;;9.70;5.07;;;8.40;88.70;;;;;;5032665;28;20412;-76
2022/04/05 11:05:13;;;;;;;11.10;5.77;;;8.50;88.40;;;;;;5038845;28;20450;-75
2022/04/05 11:07:54;;;;;;;13.00;6.40;;;8.60;88.10;;;;;;5037114;28;20934;-76
2022/04/05 11:10:30;;;;;;;9.00;5.33;;;8.60;87.30;;;;;;5032050;28;20420;-78
2022/04/05 11:13:09;;;;;;;8.27;5.33;;;8.70;87.60;;;;;;5038219;28;20460;-77
2022/04/05 11:15:54;;;;;;;9.10;4.83;;;8.70;87.70;;;;;;5028795;28;20447;-75
2022/04/05 11:18:22;;;;;;;8.30;5.30;;;8.80;88.00;;;;;;5039510;28;20503;-76
2022/04/05 11:20:50;;;;;;;10.50;5.40;;;8.80;88.00;;;;;;5036106;28;20482;-77
2022/04/05 11:23:18;;;;;;;7.47;4.97;;;8.80;88.10;;;;;;5035461;28;20522;-76
2022/04/05 11:25:45;;;;;;;8.90;5.50;;;8.90;88.40;;;;;;5029867;28;21115;-77
2022/04/05 11:28:13;;;;;;;8.67;4.93;;;8.90;88.30;;;;;;5031848;28;20440;-78
2022/04/05 11:31:04;;;;;;;10.90;5.30;;;8.90;87.80;;;;;;5031462;28;20447;-77
2022/04/05 11:33:30;;;;;;;6.63;4.90;;;9.00;88.10;;;;;;5036526;28;20505;-77
2022/04/05 11:35:57;;;;;;;7.27;4.50;;;9.10;88.10;;;;;;5041313;28;20420;-76
2022/04/05 11:38:25;;;;;;;8.23;4.30;;;9.20;86.90;;;;;;5032026;28;20507;-77
2022/04/05 11:41:05;;;;;;;7.60;5.00;;;9.20;87.70;;;;;;5031396;28;20412;-76
2022/04/05 11:43:42;;;;;;;8.17;5.33;;;9.40;88.00;;;;;;5037415;28;20419;-76
2022/04/05 11:46:14;;;;;;;8.73;5.57;;;9.50;87.10;;;;;;5036863;28;20937;-75
2022/04/05 11:48:48;;;;;;;8.10;5.00;;;9.60;87.40;;;;;;5033438;28;20642;-76
2022/04/05 11:51:16;;;;;;;6.60;4.53;;;9.60;85.70;;;;;;5044251;28;20830;-77
2022/04/05 11:53:43;;;;;;;8.83;5.30;;;9.50;85.50;;;;;;5035669;28;20489;-76
2022/04/05 11:56:23;;;;;;;8.23;4.70;;;9.50;85.50;;;;;;5044031;28;20454;-79
2022/04/05 11:58:51;;;;;;;8.37;4.67;;;9.50;85.00;;;;;;5035886;28;20411;-77
2022/04/05 12:01:23;;;;;;;9.57;4.87;;;9.70;85.30;;;;;;5036545;28;20877;-75
2022/04/05 12:04:00;;;;;;;8.10;4.90;;;9.80;85.00;;;;;;5031596;28;21008;-76
2022/04/05 12:06:29;;;;;;;5.67;4.30;;;9.90;84.70;;;;;;5030470;28;20431;-78
2022/04/05 12:08:57;;;;;;;5.53;4.10;;;10.00;84.10;;;;;;5025946;28;20508;-77
2022/04/05 12:11:24;;;;;;;7.30;4.60;;;10.20;83.60;;;;;;5031724;28;20462;-75
2022/04/05 12:14:09;;;;;;;7.80;4.37;;;10.30;82.40;;;;;;5034788;28;20444;-76
2022/04/05 12:16:57;;;;;;;6.43;4.40;;;10.20;82.20;;;;;;5034791;28;20419;-77
2022/04/05 12:19:23;;;;;;;8.73;4.50;;;10.30;83.10;;;;;;5033698;28;20501;-76
2022/04/05 12:21:57;;;;;;;6.60;4.20;;;10.20;82.70;;;;;;5033634;28;20906;-77
2022/04/05 12:24:24;;;;;;;6.30;3.90;;;10.00;82.40;;;;;;5034324;28;20204;-77
2022/04/05 12:26:50;;;;;;;10.53;5.07;;;10.00;82.10;;;;;;5030619;28;20416;-75
2022/04/05 12:29:16;;;;;;;11.10;4.10;;;10.10;83.70;;;;;;5029212;28;20416;-76
2022/04/05 12:31:41;;;;;;;7.20;3.80;;;10.10;82.50;;;;;;5035529;28;20513;-75
2022/04/05 12:34:13;;;;;;;6.67;4.17;;;10.10;82.50;;;;;;5041678;28;20287;-77
2022/04/05 12:36:46;;;;;;;7.70;4.23;;;10.10;82.20;;;;;;5030095;28;20181;-78
2022/04/05 12:39:21;;;;;;;5.63;3.97;;;10.10;81.40;;;;;;5030005;28;20911;-78
2022/04/05 12:41:48;;;;;;;7.63;4.07;;;10.10;81.90;;;;;;5029299;28;20423;-76
2022/04/05 12:44:17;;;;;;;7.40;4.47;;;10.10;83.30;;;;;;5030770;28;20480;-78
2022/04/05 12:46:47;;;;;;;7.17;4.37;;;10.10;83.00;;;;;;5037071;28;20446;-76
2022/04/05 12:49:18;;;;;;;6.93;4.10;;;10.20;83.10;;;;;;5031343;28;20822;-76
2022/04/05 12:51:45;;;;;;;5.40;3.83;;;10.10;82.10;;;;;;5038911;28;20447;-79
2022/04/05 12:54:32;;;;;;;6.07;3.77;;;10.10;82.20;;;;;;5039895;28;20582;-77